America — WDI7244 — position and weather

sailwx.info

Track history (hours):
 
Tides and Currents Weather Stations Pressure Air Temp Water Temp Dewpoint Dewpoint Depression Visibility Wind Speed Wind Dir Waves Ship Positions

America

Owner: United New York & New Jersey Sandy Hook Pilots Association, Staten Island, NY. More information available from US FCC via Universal Licensing System and Coast Guard Vessel Documentation Center.

Last reported at 2017-Nov-14 04:08 UTC. Time now 2017-Nov-18 04:58 UTC.
Position N 40°29' W 073°53'.

; draft 2.6 m.

Type: Pilot. MMSI: 367726810.

Date/timePositionNaut miles runAvg speedWind from/ knotsBaromVisibWave heightAir tempDewpointWater temp
2017-Nov-14 04:08N 40°29' W 073°53'0 0.0
2017-Nov-12 03:12N 40°29' W 073°53'1 0.0
2017-Nov-10 04:20N 40°29' W 073°53'1 2.2
2017-Nov-10 03:57N 40°29' W 073°51'1 1.4
2017-Nov-10 03:29N 40°29' W 073°51'8 0.2
2017-Nov-08 13:02N 40°32' W 074°01'019.5
2017-Nov-08 13:01N 40°32' W 074°01'510.8
2017-Nov-08 12:30N 40°37' W 074°04'0 0.0
2017-Nov-07 18:38N 40°37' W 074°04'0 0.1
2017-Nov-07 18:29N 40°37' W 074°04'0 0.0
2017-Nov-07 16:47N 40°37' W 074°04'0 0.0
2017-Nov-05 15:52N 40°37' W 074°04'6 4.9
2017-Nov-05 14:39N 40°32' W 073°60'320.1
2017-Nov-05 14:30N 40°35' W 074°02'3 0.8
2017-Nov-05 11:19N 40°37' W 074°04'413.1
2017-Nov-05 11:00N 40°34' W 074°01'1 1.0
2017-Nov-05 09:55N 40°34' W 073°59'4 0.7
2017-Nov-05 03:55N 40°37' W 074°04'818.2
2017-Nov-05 03:27N 40°30' W 073°56'511.8
2017-Nov-05 03:00N 40°34' W 074°02'3 0.6
2017-Nov-04 22:32N 40°37' W 074°03'121.6
2017-Nov-04 22:30N 40°36' W 074°03'7 6.1
2017-Nov-04 21:21N 40°31' W 073°57'618.5
2017-Nov-04 21:00N 40°36' W 074°02'2 3.5
2017-Nov-04 20:30N 40°37' W 074°04'1 1.7
2017-Nov-04 20:00N 40°38' W 074°04'714.1
2017-Nov-04 19:30N 40°32' W 073°59'4 5.4
2017-Nov-04 18:47N 40°30' W 073°55'621.6
2017-Nov-04 18:30N 40°34' W 074°01'4 0.7
2017-Nov-04 12:51N 40°37' W 074°04'618.9
2017-Nov-04 12:30N 40°32' W 073°59'0 0.3
2017-Nov-04 11:31N 40°32' W 073°59'612.8
2017-Nov-04 11:00N 40°37' W 074°04'  
Track history (hours):
 
Tides and Currents Weather Stations Pressure Air Temp Water Temp Dewpoint Dewpoint Depression Visibility Wind Speed Wind Dir Waves Ship Positions

America

Owner: United New York & New Jersey Sandy Hook Pilots Association, Staten Island, NY. More information available from US FCC via Universal Licensing System and Coast Guard Vessel Documentation Center.

Last reported at 2017-Nov-14 04:08 UTC. Time now 2017-Nov-18 04:58 UTC.
Position N 40°29' W 073°53'.

; draft 2.6 m.

Type: Pilot. MMSI: 367726810.

Date/timePositionNaut miles runAvg speedWind from/ knotsBaromVisibWave heightAir tempDewpointWater temp
2017-Nov-14 04:08N 40°29' W 073°53'0 0.0
2017-Nov-12 03:12N 40°29' W 073°53'1 0.0
2017-Nov-10 04:20N 40°29' W 073°53'1 2.2
2017-Nov-10 03:57N 40°29' W 073°51'1 1.4
2017-Nov-10 03:29N 40°29' W 073°51'8 0.2
2017-Nov-08 13:02N 40°32' W 074°01'019.5
2017-Nov-08 13:01N 40°32' W 074°01'510.8
2017-Nov-08 12:30N 40°37' W 074°04'0 0.0
2017-Nov-07 18:38N 40°37' W 074°04'0 0.1
2017-Nov-07 18:29N 40°37' W 074°04'0 0.0
2017-Nov-07 16:47N 40°37' W 074°04'0 0.0
2017-Nov-05 15:52N 40°37' W 074°04'6 4.9
2017-Nov-05 14:39N 40°32' W 073°60'320.1
2017-Nov-05 14:30N 40°35' W 074°02'3 0.8
2017-Nov-05 11:19N 40°37' W 074°04'413.1
2017-Nov-05 11:00N 40°34' W 074°01'1 1.0
2017-Nov-05 09:55N 40°34' W 073°59'4 0.7
2017-Nov-05 03:55N 40°37' W 074°04'818.2
2017-Nov-05 03:27N 40°30' W 073°56'511.8
2017-Nov-05 03:00N 40°34' W 074°02'3 0.6
2017-Nov-04 22:32N 40°37' W 074°03'121.6
2017-Nov-04 22:30N 40°36' W 074°03'7 6.1
2017-Nov-04 21:21N 40°31' W 073°57'618.5
2017-Nov-04 21:00N 40°36' W 074°02'2 3.5
2017-Nov-04 20:30N 40°37' W 074°04'1 1.7
2017-Nov-04 20:00N 40°38' W 074°04'714.1
2017-Nov-04 19:30N 40°32' W 073°59'4 5.4
2017-Nov-04 18:47N 40°30' W 073°55'621.6
2017-Nov-04 18:30N 40°34' W 074°01'4 0.7
2017-Nov-04 12:51N 40°37' W 074°04'618.9
2017-Nov-04 12:30N 40°32' W 073°59'0 0.3
2017-Nov-04 11:31N 40°32' W 073°59'612.8
2017-Nov-04 11:00N 40°37' W 074°04'  

Dump ship's entire track history